Time,TemperatureF,DewpointF,PressureIn,WindDirection,WindDirectionDegrees,WindSpeedMPH,WindSpeedGustMPH,Humidity,HourlyPrecipIn,Conditions,Clouds,dailyrainin,SoftwareType,DateUTC
2013-08-13 00:12:00,47.0,45.0,30.20,SW,215,2.0,7.0,94,0.10,,,0.00,weatherlink.com 1.10,2013-08-13 06:12:00,
2013-08-13 00:27:00,46.8,45.0,30.18,WSW,238,11.0,12.0,94,0.06,,,0.00,weatherlink.com 1.10,2013-08-13 06:27:00,
2013-08-13 00:42:00,46.9,45.0,30.18,SSW,213,6.0,16.0,92,0.02,,,0.00,weatherlink.com 1.10,2013-08-13 06:42:00,
2013-08-13 00:57:00,47.2,45.0,30.17,SSW,206,4.0,13.0,90,0.00,,,0.00,weatherlink.com 1.10,2013-08-13 06:57:00,
2013-08-13 01:12:00,47.5,45.0,30.16,SW,219,6.0,13.0,89,0.00,,,0.00,weatherlink.com 1.10,2013-08-13 07:12:00,
2013-08-13 01:27:00,47.6,44.0,30.16,SW,229,7.0,12.0,87,0.00,,,0.00,weatherlink.com 1.10,2013-08-13 07:27:00,
2013-08-13 01:42:00,48.8,44.0,30.15,South,182,8.0,12.0,84,0.00,,,0.00,weatherlink.com 1.10,2013-08-13 07:42:00,
2013-08-13 01:57:00,48.8,44.0,30.15,SSW,211,5.0,11.0,83,0.00,,,0.00,weatherlink.com 1.10,2013-08-13 07:57:00,
2013-08-13 02:12:00,48.9,44.0,30.14,SW,231,8.0,11.0,83,0.00,,,0.00,weatherlink.com 1.10,2013-08-13 08:12:00,
2013-08-13 02:27:00,49.0,44.0,30.13,SSW,201,5.0,12.0,82,0.00,,,0.00,weatherlink.com 1.10,2013-08-13 08:27:00,
2013-08-13 02:42:00,48.2,44.0,30.13,West,269,4.0,12.0,84,0.00,,,0.00,weatherlink.com 1.10,2013-08-13 08:42:00,
2013-08-13 02:57:00,45.9,43.0,30.13,SW,234,2.0,7.0,90,0.00,,,0.00,weatherlink.com 1.10,2013-08-13 08:57:00,
2013-08-13 03:13:00,45.4,43.0,30.13,West,273,2.0,8.0,91,0.00,,,0.00,weatherlink.com 1.10,2013-08-13 09:13:00,
2013-08-13 03:28:00,45.7,43.0,30.13,WSW,251,6.0,8.0,91,0.00,,,0.00,weatherlink.com 1.10,2013-08-13 09:28:00,
2013-08-13 03:43:00,45.4,43.0,30.13,WSW,250,4.0,7.0,91,0.00,,,0.00,weatherlink.com 1.10,2013-08-13 09:43:00,
2013-08-13 03:58:00,45.2,43.0,30.12,West,269,5.0,7.0,92,0.00,,,0.00,weatherlink.com 1.10,2013-08-13 09:58:00,
2013-08-13 04:13:00,45.3,43.0,30.12,WSW,252,5.0,8.0,91,0.00,,,0.00,weatherlink.com 1.10,2013-08-13 10:13:00,
2013-08-13 04:28:00,46.4,43.0,30.12,WSW,237,5.0,13.0,89,0.00,,,0.00,weatherlink.com 1.10,2013-08-13 10:28:00,
2013-08-13 04:43:00,46.9,43.0,30.12,WSW,257,7.0,14.0,87,0.00,,,0.00,weatherlink.com 1.10,2013-08-13 10:43:00,
2013-08-13 04:58:00,47.6,43.0,30.12,WSW,248,6.0,12.0,85,0.00,,,0.00,weatherlink.com 1.10,2013-08-13 10:58:00,
2013-08-13 05:13:00,48.6,43.0,30.12,WNW,284,4.0,16.0,81,0.00,,,0.00,weatherlink.com 1.10,2013-08-13 11:13:00,
2013-08-13 05:28:00,48.4,43.0,30.12,WSW,256,5.0,14.0,81,0.00,,,0.00,weatherlink.com 1.10,2013-08-13 11:28:00,
2013-08-13 05:42:00,48.3,42.0,30.12,WSW,257,13.0,14.0,80,0.00,,,0.00,weatherlink.com 1.10,2013-08-13 11:42:00,
2013-08-13 05:57:00,48.8,43.0,30.12,West,273,7.0,15.0,80,0.00,,,0.00,weatherlink.com 1.10,2013-08-13 11:57:00,
2013-08-13 06:12:00,48.3,42.0,30.12,WSW,258,7.0,15.0,79,0.00,,,0.00,weatherlink.com 1.10,2013-08-13 12:12:00,
2013-08-13 06:27:00,48.7,42.0,30.13,WSW,246,11.0,13.0,78,0.00,,,0.00,weatherlink.com 1.10,2013-08-13 12:27:00,
2013-08-13 06:42:00,49.4,43.0,30.13,West,262,4.0,13.0,78,0.00,,,0.00,weatherlink.com 1.10,2013-08-13 12:42:00,
2013-08-13 06:57:00,50.3,43.0,30.14,WNW,299,3.0,13.0,76,0.00,,,0.00,weatherlink.com 1.10,2013-08-13 12:57:00,
2013-08-13 07:12:00,51.7,44.0,30.15,WNW,288,3.0,12.0,75,0.00,,,0.00,weatherlink.com 1.10,2013-08-13 13:12:00,
2013-08-13 07:27:00,53.5,45.0,30.15,West,269,2.0,6.0,72,0.00,,,0.00,weatherlink.com 1.10,2013-08-13 13:27:00,
2013-08-13 07:42:00,54.9,44.0,30.15,SW,223,8.0,10.0,67,0.00,,,0.00,weatherlink.com 1.10,2013-08-13 13:42:00,
2013-08-13 07:57:00,55.6,45.0,30.17,NE,44,4.0,7.0,67,0.00,,,0.00,weatherlink.com 1.10,2013-08-13 13:57:00,
2013-08-13 08:12:00,54.0,48.0,30.17,NE,44,0.0,3.0,79,0.00,,,0.00,weatherlink.com 1.10,2013-08-13 14:12:00,
2013-08-13 08:27:00,53.5,46.0,30.18,NE,48,1.0,7.0,75,0.00,,,0.00,weatherlink.com 1.10,2013-08-13 14:27:00,
2013-08-13 08:42:00,52.8,45.0,30.19,ENE,78,3.0,8.0,75,0.00,,,0.00,weatherlink.com 1.10,2013-08-13 14:42:00,
2013-08-13 08:58:00,54.3,46.0,30.19,ENE,64,2.0,5.0,73,0.00,,,0.00,weatherlink.com 1.10,2013-08-13 14:58:00,
2013-08-13 09:12:00,55.3,45.0,30.20,ESE,102,3.0,7.0,69,0.00,,,0.00,weatherlink.com 1.10,2013-08-13 15:12:00,
2013-08-13 09:28:00,56.0,45.0,30.20,ENE,57,4.0,8.0,66,0.00,,,0.00,weatherlink.com 1.10,2013-08-13 15:28:00,
2013-08-13 09:43:00,55.4,44.0,30.20,ENE,65,4.0,6.0,66,0.00,,,0.00,weatherlink.com 1.10,2013-08-13 15:43:00,
2013-08-13 09:58:00,54.9,44.0,30.20,NE,36,0.0,4.0,68,0.00,,,0.00,weatherlink.com 1.10,2013-08-13 15:58:00,
2013-08-13 10:13:00,56.5,44.0,30.20,NNW,336,1.0,6.0,63,0.00,,,0.00,weatherlink.com 1.10,2013-08-13 16:13:00,
2013-08-13 10:28:00,57.4,44.0,30.21,NNE,17,0.0,6.0,62,0.00,,,0.00,weatherlink.com 1.10,2013-08-13 16:28:00,
2013-08-13 10:43:00,57.7,45.0,30.21,NE,54,1.0,8.0,62,0.00,,,0.00,weatherlink.com 1.10,2013-08-13 16:43:00,
2013-08-13 10:58:00,57.6,44.0,30.22,NNE,24,0.0,5.0,62,0.00,,,0.00,weatherlink.com 1.10,2013-08-13 16:58:00,
2013-08-13 11:13:00,60.2,46.0,30.21,East,97,3.0,8.0,60,0.00,,,0.00,weatherlink.com 1.10,2013-08-13 17:13:00,
2013-08-13 11:28:00,62.8,47.0,30.21,NE,53,7.0,11.0,56,0.00,,,0.00,weatherlink.com 1.10,2013-08-13 17:28:00,
2013-08-13 11:43:00,62.9,48.0,30.21,ENE,60,4.0,8.0,59,0.00,,,0.00,weatherlink.com 1.10,2013-08-13 17:43:00,
2013-08-13 11:58:00,60.2,42.0,30.21,NE,36,6.0,9.0,52,0.00,,,0.00,weatherlink.com 1.10,2013-08-13 17:58:00,
2013-08-13 12:13:00,60.1,46.0,30.21,ENE,65,2.0,7.0,59,0.00,,,0.00,weatherlink.com 1.10,2013-08-13 18:13:00,
2013-08-13 12:28:00,59.1,45.0,30.21,ESE,103,3.0,8.0,61,0.00,,,0.00,weatherlink.com 1.10,2013-08-13 18:28:00,
2013-08-13 12:43:00,58.8,47.0,30.21,ESE,121,7.0,7.0,64,0.00,,,0.00,weatherlink.com 1.10,2013-08-13 18:43:00,
2013-08-13 12:58:00,57.0,47.0,30.21,SSE,166,2.0,8.0,70,0.00,,,0.00,weatherlink.com 1.10,2013-08-13 18:58:00,
2013-08-13 13:13:00,60.1,52.0,30.21,ESE,113,4.0,9.0,75,0.00,,,0.00,weatherlink.com 1.10,2013-08-13 19:13:00,
2013-08-13 13:28:00,59.7,45.0,30.20,SE,126,2.0,4.0,59,0.00,,,0.00,weatherlink.com 1.10,2013-08-13 19:28:00,
2013-08-13 13:43:00,58.5,47.0,30.21,NE,40,7.0,8.0,65,0.00,,,0.00,weatherlink.com 1.10,2013-08-13 19:43:00,
2013-08-13 13:58:00,59.1,49.0,30.21,ENE,59,3.0,8.0,69,0.00,,,0.00,weatherlink.com 1.10,2013-08-13 19:58:00,
2013-08-13 14:13:00,57.8,47.0,30.22,NNE,13,0.0,6.0,68,0.00,,,0.00,weatherlink.com 1.10,2013-08-13 20:13:00,
2013-08-13 14:28:00,52.5,48.0,30.22,NW,304,1.0,9.0,85,0.00,,,0.00,weatherlink.com 1.10,2013-08-13 20:28:00,
2013-08-13 14:43:00,52.3,49.0,30.21,NE,38,3.0,5.0,88,0.05,,,0.05,weatherlink.com 1.10,2013-08-13 20:43:00,
2013-08-13 14:58:00,51.9,48.0,30.22,NE,48,0.0,10.0,87,0.05,,,0.05,weatherlink.com 1.10,2013-08-13 20:58:00,
2013-08-13 15:13:00,52.2,50.0,30.22,WNW,297,3.0,5.0,91,0.06,,,0.06,weatherlink.com 1.10,2013-08-13 21:13:00,
2013-08-13 15:28:00,50.0,46.0,30.24,West,267,6.0,20.0,86,0.07,,,0.07,weatherlink.com 1.10,2013-08-13 21:28:00,
2013-08-13 15:43:00,47.6,45.0,30.23,WSW,252,0.0,11.0,90,0.04,,,0.09,weatherlink.com 1.10,2013-08-13 21:43:00,
2013-08-13 15:58:00,49.1,47.0,30.21,WNW,289,0.0,4.0,93,0.06,,,0.11,weatherlink.com 1.10,2013-08-13 21:58:00,
2013-08-13 16:13:00,52.9,50.0,30.22,WNW,289,1.0,2.0,88,0.05,,,0.11,weatherlink.com 1.10,2013-08-13 22:13:00,
2013-08-13 16:28:00,55.2,50.0,30.21,WNW,289,3.0,6.0,83,0.04,,,0.11,weatherlink.com 1.10,2013-08-13 22:28:00,
2013-08-13 16:43:00,53.4,50.0,30.20,WNW,289,3.0,5.0,89,0.02,,,0.11,weatherlink.com 1.10,2013-08-13 22:43:00,
2013-08-13 16:58:00,52.5,50.0,30.20,West,265,1.0,13.0,90,0.00,,,0.11,weatherlink.com 1.10,2013-08-13 22:58:00,
2013-08-13 17:13:00,52.3,49.0,30.20,West,263,4.0,13.0,87,0.00,,,0.11,weatherlink.com 1.10,2013-08-13 23:13:00,
2013-08-13 17:28:00,51.8,49.0,30.20,West,262,4.0,15.0,90,0.00,,,0.11,weatherlink.com 1.10,2013-08-13 23:28:00,
2013-08-13 17:43:00,54.8,51.0,30.19,WSW,240,4.0,10.0,86,0.00,,,0.11,weatherlink.com 1.10,2013-08-13 23:43:00,
2013-08-13 17:58:00,54.8,51.0,30.18,SW,234,3.0,9.0,86,0.00,,,0.11,weatherlink.com 1.10,2013-08-13 23:58:00,
2013-08-13 18:13:00,55.1,50.0,30.19,SW,233,3.0,7.0,82,0.00,,,0.11,weatherlink.com 1.10,2013-08-14 00:13:00,
2013-08-13 18:28:00,54.4,51.0,30.19,SW,234,2.0,4.0,87,0.00,,,0.11,weatherlink.com 1.10,2013-08-14 00:28:00,
2013-08-13 18:43:00,53.7,49.0,30.20,SSW,196,3.0,6.0,84,0.00,,,0.11,weatherlink.com 1.10,2013-08-14 00:43:00,
2013-08-13 18:58:00,53.4,47.0,30.20,SSW,208,0.0,9.0,80,0.00,,,0.11,weatherlink.com 1.10,2013-08-14 00:58:00,
2013-08-13 19:13:00,53.3,48.0,30.19,WSW,254,0.0,6.0,82,0.00,,,0.11,weatherlink.com 1.10,2013-08-14 01:13:00,
2013-08-13 19:28:00,51.4,48.0,30.19,SW,228,6.0,8.0,89,0.00,,,0.11,weatherlink.com 1.10,2013-08-14 01:28:00,
2013-08-13 19:43:00,51.9,47.0,30.20,SW,233,3.0,8.0,84,0.00,,,0.11,weatherlink.com 1.10,2013-08-14 01:43:00,
2013-08-13 19:58:00,51.3,47.0,30.20,WSW,251,3.0,7.0,86,0.00,,,0.11,weatherlink.com 1.10,2013-08-14 01:58:00,
2013-08-13 20:13:00,50.6,47.0,30.21,WNW,282,2.0,7.0,87,0.00,,,0.11,weatherlink.com 1.10,2013-08-14 02:13:00,
2013-08-13 20:28:00,50.0,47.0,30.21,West,262,1.0,7.0,88,0.00,,,0.11,weatherlink.com 1.10,2013-08-14 02:28:00,
2013-08-13 20:43:00,50.2,46.0,30.22,West,273,2.0,10.0,86,0.00,,,0.11,weatherlink.com 1.10,2013-08-14 02:43:00,
2013-08-13 20:58:00,49.9,45.0,30.23,WSW,249,5.0,9.0,84,0.00,,,0.11,weatherlink.com 1.10,2013-08-14 02:58:00,
2013-08-13 21:13:00,50.7,44.0,30.25,West,273,7.0,16.0,79,0.00,,,0.11,weatherlink.com 1.10,2013-08-14 03:13:00,
2013-08-13 21:28:00,51.7,45.0,30.27,SW,223,7.0,19.0,77,0.00,,,0.11,weatherlink.com 1.10,2013-08-14 03:28:00,
2013-08-13 21:43:00,50.6,45.0,30.27,WSW,242,8.0,14.0,80,0.00,,,0.11,weatherlink.com 1.10,2013-08-14 03:43:00,
2013-08-13 21:58:00,50.3,45.0,30.27,SW,234,8.0,12.0,81,0.00,,,0.11,weatherlink.com 1.10,2013-08-14 03:58:00,
2013-08-13 22:13:00,50.3,44.0,30.27,West,265,5.0,10.0,80,0.00,,,0.11,weatherlink.com 1.10,2013-08-14 04:13:00,
2013-08-13 22:28:00,49.5,44.0,30.25,WSW,238,5.0,14.0,80,0.00,,,0.11,weatherlink.com 1.10,2013-08-14 04:28:00,
2013-08-13 22:43:00,49.3,43.0,30.23,West,265,3.0,8.0,79,0.00,,,0.11,weatherlink.com 1.10,2013-08-14 04:43:00,
2013-08-13 22:58:00,48.9,43.0,30.23,SW,227,8.0,8.0,79,0.00,,,0.11,weatherlink.com 1.10,2013-08-14 04:58:00,
2013-08-13 23:13:00,50.4,42.0,30.23,WSW,254,7.0,15.0,72,0.00,,,0.11,weatherlink.com 1.10,2013-08-14 05:13:00,
2013-08-13 23:28:00,50.5,41.0,30.23,West,266,4.0,14.0,71,0.00,,,0.11,weatherlink.com 1.10,2013-08-14 05:28:00,
2013-08-13 23:43:00,49.7,41.0,30.23,West,267,6.0,10.0,72,0.00,,,0.11,weatherlink.com 1.10,2013-08-14 05:43:00,
2013-08-13 23:58:00,49.4,41.0,30.23,West,266,4.0,9.0,73,0.00,,,0.11,weatherlink.com 1.10,2013-08-14 05:58:00,